Seneca, Nebraska
Current Conditions -  °F | °C
As of 2:55 PM on Thursday 23 Oct 2014 (Local Time) from KTIF Reporting Station
Clear Clear  
Wind Chill: 74°   Ceiling: Unl
Heat Index: 74°   Visibility: 10mi
Dew Point: 40°   Wind: 17mph
Humidity: 30%   Direction: 220°SW
Pressure: 29.98"   Gusts: NA
Location:  42.04°N, 100.83°W
Report Text: KTIF 231955Z AUTO 22015KT 10SM CLR 23/05 A2998 RMK AO2 T02320046
Loading
Personal Weather Stations






























Interactive Weather Map
Tropical Storm Tracking
New forecast layout! Learn more

10-Day Weather Forecast

Advertisements
Track Severe Weather on mobile